Oriental Freesia — ZGCD7 — position and weather

sailwx.info

Track history (hours):
 
Tides and Currents Weather Stations Pressure Air Temp Water Temp Dewpoint Dewpoint Depression Visibility Wind Speed Wind Dir Waves Ship Positions

Oriental Freesia

Last reported at 2017-Jun-18 16:29 UTC. Time now 2017-Jun-23 10:32 UTC.
Position N 36°27' E 014°41'.

Length 134 m; draft 8.1 m.

Type: Ship (hazmat cat A). MMSI: 319349000.

Date/timePositionNaut miles runAvg speedWind from/ knotsBaromVisibWave heightAir tempDewpointWater temp
2017-Jun-18 16:29N 36°27' E 014°41'511.2
2017-Jun-18 16:00N 36°28' E 014°35'511.0
2017-Jun-18 15:30N 36°30' E 014°28'510.9
2017-Jun-18 15:00N 36°31' E 014°22'1110.7
2017-Jun-18 14:00N 36°34' E 014°09'510.6
2017-Jun-18 13:30N 36°35' E 014°02'510.6
2017-Jun-18 13:00N 36°36' E 013°56'510.7
2017-Jun-18 12:30N 36°38' E 013°50'510.8
2017-Jun-18 12:00N 36°39' E 013°43'611.0
2017-Jun-18 11:28N 36°41' E 013°36'711.2
2017-Jun-18 10:51N 36°42' E 013°28'711.1
2017-Jun-18 10:13N 36°44' E 013°19'18912.1
2017-Jun-17 18:34N 37°38' E 009°32'111.9
2017-Jun-17 18:30N 37°38' E 009°31'26311.9
2017-Jun-16 20:26N 37°21' E 004°00'511.4
2017-Jun-16 20:00N 37°21' E 003°54'611.7
2017-Jun-16 19:30N 37°19' E 003°47'611.8
2017-Jun-16 19:00N 37°18' E 003°39'611.7
2017-Jun-16 18:30N 37°17' E 003°32'611.5
2017-Jun-16 18:00N 37°16' E 003°25'811.3
2017-Jun-16 17:20N 37°14' E 003°16'411.2
2017-Jun-16 16:59N 37°13' E 003°11'511.2
2017-Jun-16 16:30N 37°12' E 003°05'611.3
2017-Jun-16 15:59N 37°11' E 002°58'711.2
2017-Jun-16 15:20N 37°10' E 002°48'411.2
2017-Jun-16 15:00N 37°09' E 002°44'611.2
2017-Jun-16 14:27N 37°08' E 002°37'1111.0
2017-Jun-16 13:26N 37°05' E 002°23'711.0
2017-Jun-16 12:47N 37°03' E 002°14'310.9
2017-Jun-16 12:30N 37°03' E 002°10'510.9
2017-Jun-16 12:00N 37°02' E 002°04'511.0
2017-Jun-16 11:30N 37°00' E 001°57'611.0
2017-Jun-16 11:00N 36°59' E 001°50'611.2
2017-Jun-16 10:30N 36°58' E 001°43'611.1
2017-Jun-16 09:58N 36°57' E 001°36'2711.4
2017-Jun-16 07:36N 36°51' E 001°03'111.5
2017-Jun-16 07:30N 36°51' E 001°02'611.9
2017-Jun-16 07:00N 36°50' E 000°54'612.1
2017-Jun-16 06:30N 36°48' E 000°47'612.4
2017-Jun-16 06:00N 36°47' E 000°39'612.5
2017-Jun-16 05:29N 36°45' E 000°32'612.5
2017-Jun-16 05:00N 36°44' E 000°24'612.4
2017-Jun-16 04:30N 36°43' E 000°17'612.1
2017-Jun-16 04:00N 36°42' E 000°09'2111.5
2017-Jun-16 02:09N 36°37' W 000°17'211.0
2017-Jun-16 01:59N 36°37' W 000°19'511.0
2017-Jun-16 01:30N 36°36' W 000°25'611.0
2017-Jun-16 00:58N 36°34' W 000°32'811.2
2017-Jun-16 00:14N 36°32' W 000°42'311.2
2017-Jun-16 00:00N 36°32' W 000°45'3011.4
2017-Jun-15 21:24N 36°26' W 001°21'3311.5
2017-Jun-15 18:30N 36°19' W 002°02'1511.9
2017-Jun-15 17:16N 36°15' W 002°20'14212.6
2017-Jun-15 05:57N 35°60' W 005°14'614.5
2017-Jun-15 05:30N 35°59' W 005°22'713.6
2017-Jun-15 05:00N 35°57' W 005°30'612.3
2017-Jun-15 04:30N 35°55' W 005°37'710.9
2017-Jun-15 03:51N 35°54' W 005°46'9011.9
2017-Jun-14 20:17N 36°08' W 007°36'612.4
2017-Jun-14 19:49N 36°10' W 007°43'412.4
2017-Jun-14 19:29N 36°10' W 007°48'4112.5
2017-Jun-14 16:14N 36°21' W 008°37'512.6
2017-Jun-14 15:51N 36°22' W 008°43'1212.4
2017-Jun-14 14:52N 36°26' W 008°57'411.9
2017-Jun-14 14:30N 36°27' W 009°02'1412.0
2017-Jun-14 13:19N 36°30' W 009°19'412.6
2017-Jun-14 12:59N 36°33' W 009°23'612.0
2017-Jun-14 12:30N 36°37' W 009°28'612.0
2017-Jun-14 12:00N 36°41' W 009°33'611.7
2017-Jun-14 11:30N 36°46' W 009°38'612.3
2017-Jun-14 10:59N 36°52' W 009°40'612.4
2017-Jun-14 10:30N 36°58' W 009°41'912.2
2017-Jun-14 09:48N 37°06' W 009°44'712.0
2017-Jun-14 09:14N 37°13' W 009°45'1012.2
2017-Jun-14 08:28N 37°22' W 009°48'3612.2
2017-Jun-14 05:31N 37°57' W 009°59'112.1
2017-Jun-14 05:28N 37°58' W 009°59'612.2
2017-Jun-14 04:56N 38°04' W 010°01'512.1
2017-Jun-14 04:30N 38°09' W 010°02'612.3
2017-Jun-14 04:00N 38°15' W 010°04'612.3
2017-Jun-14 03:30N 38°21' W 010°06'912.4
2017-Jun-14 02:49N 38°29' W 010°08'412.5
2017-Jun-14 02:30N 38°33' W 010°09'612.5
2017-Jun-14 02:00N 38°39' W 010°11'612.2
2017-Jun-14 01:30N 38°45' W 010°11'611.7
2017-Jun-14 01:00N 38°51' W 010°11'611.5
2017-Jun-14 00:30N 38°57' W 010°11'612.0
2017-Jun-14 00:00N 39°03' W 010°11'611.8
2017-Jun-13 23:30N 39°09' W 010°11'612.1
2017-Jun-13 23:00N 39°15' W 010°11'3811.6
2017-Jun-13 19:44N 39°50' W 009°53'512.0
2017-Jun-13 19:16N 39°55' W 009°49'312.1
2017-Jun-13 19:00N 39°58' W 009°47'612.1
2017-Jun-13 18:30N 40°03' W 009°43'612.0
2017-Jun-13 18:00N 40°08' W 009°38'911.9
2017-Jun-13 17:16N 40°15' W 009°32'311.6
2017-Jun-13 16:58N 40°18' W 009°30'511.6
2017-Jun-13 16:30N 40°22' W 009°26'611.8
2017-Jun-13 16:00N 40°27' W 009°21'612.2
2017-Jun-13 15:30N 40°32' W 009°17'  
2017-Jun-10 00:38N 47°50' W 006°39'110.0
2017-Jun-10 00:31N 47°51' W 006°38'910.6
2017-Jun-09 23:42N 47°59' W 006°32'411.0
2017-Jun-09 23:21N 48°02' W 006°29'811.3
2017-Jun-09 22:39N 48°09' W 006°23'1512.0
2017-Jun-09 21:22N 48°23' W 006°12'3212.1
2017-Jun-09 18:43N 48°51' W 005°49'311.2
2017-Jun-09 18:26N 48°53' W 005°46'7 9.9
2017-Jun-09 17:44N 48°58' W 005°38'2 9.4
2017-Jun-09 17:31N 48°59' W 005°35'5 9.3
2017-Jun-09 16:58N 49°02' W 005°29'4 9.3
2017-Jun-09 16:31N 49°04' W 005°24'9 9.0
2017-Jun-09 15:31N 49°08' W 005°12'0 9.2
2017-Jun-09 15:28N 49°09' W 005°11'10 9.5
2017-Jun-09 14:22N 49°14' W 004°57'6511.6
2017-Jun-09 08:45N 49°46' W 003°30'311.0
2017-Jun-09 08:29N 49°47' W 003°26'510.5
2017-Jun-09 08:00N 49°50' W 003°19'510.2
2017-Jun-09 07:31N 49°52' W 003°13'5 9.9
2017-Jun-09 07:00N 49°55' W 003°06'5 9.7
2017-Jun-09 06:30N 49°57' W 002°59'5 9.7
2017-Jun-09 06:00N 49°59' W 002°52'510.0
2017-Jun-09 05:30N 50°01' W 002°45'2811.8
2017-Jun-09 03:08N 50°07' W 002°02'214.0
2017-Jun-09 03:00N 50°07' W 001°60'714.2
2017-Jun-09 02:31N 50°07' W 001°49'714.7
2017-Jun-09 02:01N 50°05' W 001°37'714.7
2017-Jun-09 01:30N 50°03' W 001°27'714.8
2017-Jun-09 01:00N 49°59' W 001°16'714.3
2017-Jun-09 00:30N 49°56' W 001°07'713.9
2017-Jun-09 00:00N 49°52' W 000°58'713.4
2017-Jun-08 23:29N 49°48' W 000°49'612.5
2017-Jun-08 23:01N 49°44' W 000°41'612.0
2017-Jun-08 22:30N 49°41' W 000°34'611.9
2017-Jun-08 22:00N 49°38' W 000°26'611.7
2017-Jun-08 21:30N 49°34' W 000°19'611.6
2017-Jun-08 21:00N 49°32' W 000°11'611.1
2017-Jun-08 20:30N 49°30' W 000°03'510.8
2017-Jun-08 20:00N 49°29' E 000°05'3 6.6
2017-Jun-08 19:30N 49°29' E 000°10'1 1.4
2017-Jun-08 19:00N 49°29' E 000°11'2 3.8
2017-Jun-08 18:30N 49°28' E 000°14'0 0.0
2017-Jun-08 17:59N 49°28' E 000°14'0 0.0
2017-Jun-08 17:29N 49°28' E 000°14'0 0.0
2017-Jun-08 16:59N 49°28' E 000°14'  
Track history (hours):
 
Tides and Currents Weather Stations Pressure Air Temp Water Temp Dewpoint Dewpoint Depression Visibility Wind Speed Wind Dir Waves Ship Positions

Oriental Freesia

Last reported at 2017-Jun-18 16:29 UTC. Time now 2017-Jun-23 10:32 UTC.
Position N 36°27' E 014°41'.

Length 134 m; draft 8.1 m.

Type: Ship (hazmat cat A). MMSI: 319349000.

Date/timePositionNaut miles runAvg speedWind from/ knotsBaromVisibWave heightAir tempDewpointWater temp
2017-Jun-18 16:29N 36°27' E 014°41'511.2
2017-Jun-18 16:00N 36°28' E 014°35'511.0
2017-Jun-18 15:30N 36°30' E 014°28'510.9
2017-Jun-18 15:00N 36°31' E 014°22'1110.7
2017-Jun-18 14:00N 36°34' E 014°09'510.6
2017-Jun-18 13:30N 36°35' E 014°02'510.6
2017-Jun-18 13:00N 36°36' E 013°56'510.7
2017-Jun-18 12:30N 36°38' E 013°50'510.8
2017-Jun-18 12:00N 36°39' E 013°43'611.0
2017-Jun-18 11:28N 36°41' E 013°36'711.2
2017-Jun-18 10:51N 36°42' E 013°28'711.1
2017-Jun-18 10:13N 36°44' E 013°19'18912.1
2017-Jun-17 18:34N 37°38' E 009°32'111.9
2017-Jun-17 18:30N 37°38' E 009°31'26311.9
2017-Jun-16 20:26N 37°21' E 004°00'511.4
2017-Jun-16 20:00N 37°21' E 003°54'611.7
2017-Jun-16 19:30N 37°19' E 003°47'611.8
2017-Jun-16 19:00N 37°18' E 003°39'611.7
2017-Jun-16 18:30N 37°17' E 003°32'611.5
2017-Jun-16 18:00N 37°16' E 003°25'811.3
2017-Jun-16 17:20N 37°14' E 003°16'411.2
2017-Jun-16 16:59N 37°13' E 003°11'511.2
2017-Jun-16 16:30N 37°12' E 003°05'611.3
2017-Jun-16 15:59N 37°11' E 002°58'711.2
2017-Jun-16 15:20N 37°10' E 002°48'411.2
2017-Jun-16 15:00N 37°09' E 002°44'611.2
2017-Jun-16 14:27N 37°08' E 002°37'1111.0
2017-Jun-16 13:26N 37°05' E 002°23'711.0
2017-Jun-16 12:47N 37°03' E 002°14'310.9
2017-Jun-16 12:30N 37°03' E 002°10'510.9
2017-Jun-16 12:00N 37°02' E 002°04'511.0
2017-Jun-16 11:30N 37°00' E 001°57'611.0
2017-Jun-16 11:00N 36°59' E 001°50'611.2
2017-Jun-16 10:30N 36°58' E 001°43'611.1
2017-Jun-16 09:58N 36°57' E 001°36'2711.4
2017-Jun-16 07:36N 36°51' E 001°03'111.5
2017-Jun-16 07:30N 36°51' E 001°02'611.9
2017-Jun-16 07:00N 36°50' E 000°54'612.1
2017-Jun-16 06:30N 36°48' E 000°47'612.4
2017-Jun-16 06:00N 36°47' E 000°39'612.5
2017-Jun-16 05:29N 36°45' E 000°32'612.5
2017-Jun-16 05:00N 36°44' E 000°24'612.4
2017-Jun-16 04:30N 36°43' E 000°17'612.1
2017-Jun-16 04:00N 36°42' E 000°09'2111.5
2017-Jun-16 02:09N 36°37' W 000°17'211.0
2017-Jun-16 01:59N 36°37' W 000°19'511.0
2017-Jun-16 01:30N 36°36' W 000°25'611.0
2017-Jun-16 00:58N 36°34' W 000°32'811.2
2017-Jun-16 00:14N 36°32' W 000°42'311.2
2017-Jun-16 00:00N 36°32' W 000°45'3011.4
2017-Jun-15 21:24N 36°26' W 001°21'3311.5
2017-Jun-15 18:30N 36°19' W 002°02'1511.9
2017-Jun-15 17:16N 36°15' W 002°20'14212.6
2017-Jun-15 05:57N 35°60' W 005°14'614.5
2017-Jun-15 05:30N 35°59' W 005°22'713.6
2017-Jun-15 05:00N 35°57' W 005°30'612.3
2017-Jun-15 04:30N 35°55' W 005°37'710.9
2017-Jun-15 03:51N 35°54' W 005°46'9011.9
2017-Jun-14 20:17N 36°08' W 007°36'612.4
2017-Jun-14 19:49N 36°10' W 007°43'412.4
2017-Jun-14 19:29N 36°10' W 007°48'4112.5
2017-Jun-14 16:14N 36°21' W 008°37'512.6
2017-Jun-14 15:51N 36°22' W 008°43'1212.4
2017-Jun-14 14:52N 36°26' W 008°57'411.9
2017-Jun-14 14:30N 36°27' W 009°02'1412.0
2017-Jun-14 13:19N 36°30' W 009°19'412.6
2017-Jun-14 12:59N 36°33' W 009°23'612.0
2017-Jun-14 12:30N 36°37' W 009°28'612.0
2017-Jun-14 12:00N 36°41' W 009°33'611.7
2017-Jun-14 11:30N 36°46' W 009°38'612.3
2017-Jun-14 10:59N 36°52' W 009°40'612.4
2017-Jun-14 10:30N 36°58' W 009°41'912.2
2017-Jun-14 09:48N 37°06' W 009°44'712.0
2017-Jun-14 09:14N 37°13' W 009°45'1012.2
2017-Jun-14 08:28N 37°22' W 009°48'3612.2
2017-Jun-14 05:31N 37°57' W 009°59'112.1
2017-Jun-14 05:28N 37°58' W 009°59'612.2
2017-Jun-14 04:56N 38°04' W 010°01'512.1
2017-Jun-14 04:30N 38°09' W 010°02'612.3
2017-Jun-14 04:00N 38°15' W 010°04'612.3
2017-Jun-14 03:30N 38°21' W 010°06'912.4
2017-Jun-14 02:49N 38°29' W 010°08'412.5
2017-Jun-14 02:30N 38°33' W 010°09'612.5
2017-Jun-14 02:00N 38°39' W 010°11'612.2
2017-Jun-14 01:30N 38°45' W 010°11'611.7
2017-Jun-14 01:00N 38°51' W 010°11'611.5
2017-Jun-14 00:30N 38°57' W 010°11'612.0
2017-Jun-14 00:00N 39°03' W 010°11'611.8
2017-Jun-13 23:30N 39°09' W 010°11'612.1
2017-Jun-13 23:00N 39°15' W 010°11'3811.6
2017-Jun-13 19:44N 39°50' W 009°53'512.0
2017-Jun-13 19:16N 39°55' W 009°49'312.1
2017-Jun-13 19:00N 39°58' W 009°47'612.1
2017-Jun-13 18:30N 40°03' W 009°43'612.0
2017-Jun-13 18:00N 40°08' W 009°38'911.9
2017-Jun-13 17:16N 40°15' W 009°32'311.6
2017-Jun-13 16:58N 40°18' W 009°30'511.6
2017-Jun-13 16:30N 40°22' W 009°26'611.8
2017-Jun-13 16:00N 40°27' W 009°21'612.2
2017-Jun-13 15:30N 40°32' W 009°17'  
2017-Jun-10 00:38N 47°50' W 006°39'110.0
2017-Jun-10 00:31N 47°51' W 006°38'910.6
2017-Jun-09 23:42N 47°59' W 006°32'411.0
2017-Jun-09 23:21N 48°02' W 006°29'811.3
2017-Jun-09 22:39N 48°09' W 006°23'1512.0
2017-Jun-09 21:22N 48°23' W 006°12'3212.1
2017-Jun-09 18:43N 48°51' W 005°49'311.2
2017-Jun-09 18:26N 48°53' W 005°46'7 9.9
2017-Jun-09 17:44N 48°58' W 005°38'2 9.4
2017-Jun-09 17:31N 48°59' W 005°35'5 9.3
2017-Jun-09 16:58N 49°02' W 005°29'4 9.3
2017-Jun-09 16:31N 49°04' W 005°24'9 9.0
2017-Jun-09 15:31N 49°08' W 005°12'0 9.2
2017-Jun-09 15:28N 49°09' W 005°11'10 9.5
2017-Jun-09 14:22N 49°14' W 004°57'6511.6
2017-Jun-09 08:45N 49°46' W 003°30'311.0
2017-Jun-09 08:29N 49°47' W 003°26'510.5
2017-Jun-09 08:00N 49°50' W 003°19'510.2
2017-Jun-09 07:31N 49°52' W 003°13'5 9.9
2017-Jun-09 07:00N 49°55' W 003°06'5 9.7
2017-Jun-09 06:30N 49°57' W 002°59'5 9.7
2017-Jun-09 06:00N 49°59' W 002°52'510.0
2017-Jun-09 05:30N 50°01' W 002°45'2811.8
2017-Jun-09 03:08N 50°07' W 002°02'214.0
2017-Jun-09 03:00N 50°07' W 001°60'714.2
2017-Jun-09 02:31N 50°07' W 001°49'714.7
2017-Jun-09 02:01N 50°05' W 001°37'714.7
2017-Jun-09 01:30N 50°03' W 001°27'714.8
2017-Jun-09 01:00N 49°59' W 001°16'714.3
2017-Jun-09 00:30N 49°56' W 001°07'713.9
2017-Jun-09 00:00N 49°52' W 000°58'713.4
2017-Jun-08 23:29N 49°48' W 000°49'612.5
2017-Jun-08 23:01N 49°44' W 000°41'612.0
2017-Jun-08 22:30N 49°41' W 000°34'611.9
2017-Jun-08 22:00N 49°38' W 000°26'611.7
2017-Jun-08 21:30N 49°34' W 000°19'611.6
2017-Jun-08 21:00N 49°32' W 000°11'611.1
2017-Jun-08 20:30N 49°30' W 000°03'510.8
2017-Jun-08 20:00N 49°29' E 000°05'3 6.6
2017-Jun-08 19:30N 49°29' E 000°10'1 1.4
2017-Jun-08 19:00N 49°29' E 000°11'2 3.8
2017-Jun-08 18:30N 49°28' E 000°14'0 0.0
2017-Jun-08 17:59N 49°28' E 000°14'0 0.0
2017-Jun-08 17:29N 49°28' E 000°14'0 0.0
2017-Jun-08 16:59N 49°28' E 000°14'  

Dump ship's entire track history